sensor_id;sensor_type;location;lat;lon;timestamp;temperature;humidity
45383;DHT22;42455;51.660;5.824;2022-09-21T00:01:37;12.7;92.5
45383;DHT22;42455;51.660;5.824;2022-09-21T00:06:43;12.8;92.5
45383;DHT22;42455;51.660;5.824;2022-09-21T00:11:50;12.8;92.5
45383;DHT22;42455;51.660;5.824;2022-09-21T00:16:56;12.8;92.5
45383;DHT22;42455;51.660;5.824;2022-09-21T00:22:02;12.8;92.5
45383;DHT22;42455;51.660;5.824;2022-09-21T00:27:08;12.8;93.0
45383;DHT22;42455;51.660;5.824;2022-09-21T00:32:14;12.9;93.0
45383;DHT22;42455;51.660;5.824;2022-09-21T00:37:20;12.9;93.0
45383;DHT22;42455;51.660;5.824;2022-09-21T00:42:30;12.9;93.0
45383;DHT22;42455;51.660;5.824;2022-09-21T00:47:34;12.9;93.0
45383;DHT22;42455;51.660;5.824;2022-09-21T00:52:49;12.9;93.0
45383;DHT22;42455;51.660;5.824;2022-09-21T00:57:46;12.9;93.0
45383;DHT22;42455;51.660;5.824;2022-09-21T01:02:50;12.9;93.0
45383;DHT22;42455;51.660;5.824;2022-09-21T01:07:58;12.9;93.0
45383;DHT22;42455;51.660;5.824;2022-09-21T01:13:46;12.9;93.0
45383;DHT22;42455;51.660;5.824;2022-09-21T01:18:55;12.9;93.0
45383;DHT22;42455;51.660;5.824;2022-09-21T01:24:43;12.9;93.0
45383;DHT22;42455;51.660;5.824;2022-09-21T01:30:06;12.9;93.0
45383;DHT22;42455;51.660;5.824;2022-09-21T01:33:43;12.8;93.0
45383;DHT22;42455;51.660;5.824;2022-09-21T01:38:38;12.8;93.0
45383;DHT22;42455;51.660;5.824;2022-09-21T01:43:42;12.8;93.0
45383;DHT22;42455;51.660;5.824;2022-09-21T01:48:58;12.7;93.0
45383;DHT22;42455;51.660;5.824;2022-09-21T01:53:55;12.7;93.0
45383;DHT22;42455;51.660;5.824;2022-09-21T01:59:29;12.6;93.0
45383;DHT22;42455;51.660;5.824;2022-09-21T02:04:09;12.6;93.0
45383;DHT22;42455;51.660;5.824;2022-09-21T02:09:11;12.5;93.0
45383;DHT22;42455;51.660;5.824;2022-09-21T02:14:20;12.5;93.0
45383;DHT22;42455;51.660;5.824;2022-09-21T02:19:48;12.4;93.0
45383;DHT22;42455;51.660;5.824;2022-09-21T02:24:37;12.4;93.0
45383;DHT22;42455;51.660;5.824;2022-09-21T02:29:50;12.3;93.0
45383;DHT22;42455;51.660;5.824;2022-09-21T02:34:47;12.2;93.0
45383;DHT22;42455;51.660;5.824;2022-09-21T02:40:00;12.1;93.0
45383;DHT22;42455;51.660;5.824;2022-09-21T02:44:56;12.0;93.0
45383;DHT22;42455;51.660;5.824;2022-09-21T02:50:03;11.9;93.0
45383;DHT22;42455;51.660;5.824;2022-09-21T02:55:06;11.8;93.0
45383;DHT22;42455;51.660;5.824;2022-09-21T03:00:11;11.7;93.0
45383;DHT22;42455;51.660;5.824;2022-09-21T03:05:17;11.6;93.0
45383;DHT22;42455;51.660;5.824;2022-09-21T03:10:23;11.5;93.0
45383;DHT22;42455;51.660;5.824;2022-09-21T03:15:29;11.4;93.0
45383;DHT22;42455;51.660;5.824;2022-09-21T03:20:36;11.4;93.0
45383;DHT22;42455;51.660;5.824;2022-09-21T03:25:42;11.3;93.0
45383;DHT22;42455;51.660;5.824;2022-09-21T03:30:48;11.3;93.0
45383;DHT22;42455;51.660;5.824;2022-09-21T03:35:54;11.1;93.0
45383;DHT22;42455;51.660;5.824;2022-09-21T03:41:00;11.1;93.0
45383;DHT22;42455;51.660;5.824;2022-09-21T03:46:06;11.0;93.0
45383;DHT22;42455;51.660;5.824;2022-09-21T03:51:13;10.9;93.0
45383;DHT22;42455;51.660;5.824;2022-09-21T03:56:19;10.8;93.0
45383;DHT22;42455;51.660;5.824;2022-09-21T04:01:25;10.7;93.0
45383;DHT22;42455;51.660;5.824;2022-09-21T04:06:31;10.7;93.0
45383;DHT22;42455;51.660;5.824;2022-09-21T04:11:37;10.6;93.0
45383;DHT22;42455;51.660;5.824;2022-09-21T04:16:44;10.5;93.5
45383;DHT22;42455;51.660;5.824;2022-09-21T04:21:50;10.5;93.5
45383;DHT22;42455;51.660;5.824;2022-09-21T04:26:56;10.5;93.5
45383;DHT22;42455;51.660;5.824;2022-09-21T04:32:02;10.4;93.5
45383;DHT22;42455;51.660;5.824;2022-09-21T04:37:09;10.4;93.5
45383;DHT22;42455;51.660;5.824;2022-09-21T04:42:13;10.3;93.0
45383;DHT22;42455;51.660;5.824;2022-09-21T04:47:19;10.2;93.0
45383;DHT22;42455;51.660;5.824;2022-09-21T04:52:25;10.1;93.0
45383;DHT22;42455;51.660;5.824;2022-09-21T04:57:31;10.1;93.5
45383;DHT22;42455;51.660;5.824;2022-09-21T05:02:38;10.0;93.5
45383;DHT22;42455;51.660;5.824;2022-09-21T05:07:44;9.9;93.5
45383;DHT22;42455;51.660;5.824;2022-09-21T05:12:50;9.9;93.5
45383;DHT22;42455;51.660;5.824;2022-09-21T05:17:56;9.8;93.0
45383;DHT22;42455;51.660;5.824;2022-09-21T05:23:02;9.7;93.0
45383;DHT22;42455;51.660;5.824;2022-09-21T05:28:09;9.7;93.0
45383;DHT22;42455;51.660;5.824;2022-09-21T05:33:19;9.7;93.0
45383;DHT22;42455;51.660;5.824;2022-09-21T05:38:21;9.6;93.5
45383;DHT22;42455;51.660;5.824;2022-09-21T05:43:27;9.5;93.5
45383;DHT22;42455;51.660;5.824;2022-09-21T05:48:47;9.5;93.5
45383;DHT22;42455;51.660;5.824;2022-09-21T05:54:01;9.5;93.5
45383;DHT22;42455;51.660;5.824;2022-09-21T05:59:37;9.4;93.5
45383;DHT22;42455;51.660;5.824;2022-09-21T06:03:52;9.4;93.5
45383;DHT22;42455;51.660;5.824;2022-09-21T06:08:58;9.4;94.0
45383;DHT22;42455;51.660;5.824;2022-09-21T06:14:04;9.4;94.0
45383;DHT22;42455;51.660;5.824;2022-09-21T06:19:11;9.4;94.0
45383;DHT22;42455;51.660;5.824;2022-09-21T06:24:17;9.5;94.0
45383;DHT22;42455;51.660;5.824;2022-09-21T06:29:22;9.6;95.0
45383;DHT22;42455;51.660;5.824;2022-09-21T06:34:28;9.8;95.5
45383;DHT22;42455;51.660;5.824;2022-09-21T06:39:33;10.0;95.5
45383;DHT22;42455;51.660;5.824;2022-09-21T06:44:40;10.3;96.0
45383;DHT22;42455;51.660;5.824;2022-09-21T06:49:46;10.7;96.5
45383;DHT22;42455;51.660;5.824;2022-09-21T06:54:52;11.1;97.0
45383;DHT22;42455;51.660;5.824;2022-09-21T06:59:58;11.4;97.5
45383;DHT22;42455;51.660;5.824;2022-09-21T07:05:05;11.8;97.5
45383;DHT22;42455;51.660;5.824;2022-09-21T07:10:11;12.2;97.5
45383;DHT22;42455;51.660;5.824;2022-09-21T07:15:17;12.7;97.5
45383;DHT22;42455;51.660;5.824;2022-09-21T07:20:23;13.0;97.0
45383;DHT22;42455;51.660;5.824;2022-09-21T07:25:29;13.4;97.0
45383;DHT22;42455;51.660;5.824;2022-09-21T07:30:36;13.7;96.5
45383;DHT22;42455;51.660;5.824;2022-09-21T07:35:48;14.0;96.0
45383;DHT22;42455;51.660;5.824;2022-09-21T07:40:48;14.3;96.0
45383;DHT22;42455;51.660;5.824;2022-09-21T07:45:54;14.5;95.5
45383;DHT22;42455;51.660;5.824;2022-09-21T07:51:01;14.8;95.0
45383;DHT22;42455;51.660;5.824;2022-09-21T07:56:09;15.0;94.0
45383;DHT22;42455;51.660;5.824;2022-09-21T08:01:13;15.2;93.5
45383;DHT22;42455;51.660;5.824;2022-09-21T08:06:20;15.4;93.0
45383;DHT22;42455;51.660;5.824;2022-09-21T08:11:30;15.5;93.0
45383;DHT22;42455;51.660;5.824;2022-09-21T08:16:31;15.7;93.0
45383;DHT22;42455;51.660;5.824;2022-09-21T08:21:38;15.8;92.0
45383;DHT22;42455;51.660;5.824;2022-09-21T08:26:43;16.0;91.5
45383;DHT22;42455;51.660;5.824;2022-09-21T08:31:49;16.1;91.5
45383;DHT22;42455;51.660;5.824;2022-09-21T08:36:54;16.2;91.5
45383;DHT22;42455;51.660;5.824;2022-09-21T08:42:07;16.3;91.5
45383;DHT22;42455;51.660;5.824;2022-09-21T08:47:27;16.5;91.5
45383;DHT22;42455;51.660;5.824;2022-09-21T08:52:15;16.7;91.5
45383;DHT22;42455;51.660;5.824;2022-09-21T08:57:22;17.0;91.0
45383;DHT22;42455;51.660;5.824;2022-09-21T09:03:14;17.1;90.0
45383;DHT22;42455;51.660;5.824;2022-09-21T09:09:01;17.3;89.5
45383;DHT22;42455;51.660;5.824;2022-09-21T09:14:20;17.4;88.5
45383;DHT22;42455;51.660;5.824;2022-09-21T09:19:21;17.6;88.0
45383;DHT22;42455;51.660;5.824;2022-09-21T09:23:09;17.7;87.5
45383;DHT22;42455;51.660;5.824;2022-09-21T09:28:00;17.9;87.0
45383;DHT22;42455;51.660;5.824;2022-09-21T09:33:24;18.0;86.0
45383;DHT22;42455;51.660;5.824;2022-09-21T09:38:18;18.1;84.5
45383;DHT22;42455;51.660;5.824;2022-09-21T09:44:12;18.2;84.0
45383;DHT22;42455;51.660;5.824;2022-09-21T09:49:01;18.3;83.0
45383;DHT22;42455;51.660;5.824;2022-09-21T09:53:28;18.4;82.5
45383;DHT22;42455;51.660;5.824;2022-09-21T09:58:55;18.5;82.5
45383;DHT22;42455;51.660;5.824;2022-09-21T10:03:40;18.6;81.0
45383;DHT22;42455;51.660;5.824;2022-09-21T10:08:46;18.6;81.0
45383;DHT22;42455;51.660;5.824;2022-09-21T10:13:52;18.6;80.5
45383;DHT22;42455;51.660;5.824;2022-09-21T10:18:59;18.7;80.5
45383;DHT22;42455;51.660;5.824;2022-09-21T10:24:06;18.9;79.0
45383;DHT22;42455;51.660;5.824;2022-09-21T10:29:28;19.0;78.5
45383;DHT22;42455;51.660;5.824;2022-09-21T10:34:15;19.1;78.0
45383;DHT22;42455;51.660;5.824;2022-09-21T10:39:25;19.2;78.0
45383;DHT22;42455;51.660;5.824;2022-09-21T10:44:35;19.2;77.5
45383;DHT22;42455;51.660;5.824;2022-09-21T10:49:33;19.3;75.5
45383;DHT22;42455;51.660;5.824;2022-09-21T10:54:41;19.4;75.0
45383;DHT22;42455;51.660;5.824;2022-09-21T10:59:45;19.4;74.0
45383;DHT22;42455;51.660;5.824;2022-09-21T11:04:55;19.5;73.5
45383;DHT22;42455;51.660;5.824;2022-09-21T11:10:08;19.4;73.0
45383;DHT22;42455;51.660;5.824;2022-09-21T11:15:16;19.3;72.5
45383;DHT22;42455;51.660;5.824;2022-09-21T11:20:24;19.1;72.5
45383;DHT22;42455;51.660;5.824;2022-09-21T11:25:39;19.1;72.5
45383;DHT22;42455;51.660;5.824;2022-09-21T11:30:23;19.0;72.5
45383;DHT22;42455;51.660;5.824;2022-09-21T11:36:36;18.9;72.5
45383;DHT22;42455;51.660;5.824;2022-09-21T11:41:58;18.9;72.5
45383;DHT22;42455;51.660;5.824;2022-09-21T11:46:35;18.9;72.0
45383;DHT22;42455;51.660;5.824;2022-09-21T11:52:56;18.8;72.0
45383;DHT22;42455;51.660;5.824;2022-09-21T11:57:35;18.7;72.0
45383;DHT22;42455;51.660;5.824;2022-09-21T12:02:48;18.7;72.0
45383;DHT22;42455;51.660;5.824;2022-09-21T12:08:09;18.9;71.5
45383;DHT22;42455;51.660;5.824;2022-09-21T12:13:17;19.1;71.5
45383;DHT22;42455;51.660;5.824;2022-09-21T12:17:42;19.3;71.0
45383;DHT22;42455;51.660;5.824;2022-09-21T12:21:44;19.5;70.5
45383;DHT22;42455;51.660;5.824;2022-09-21T12:26:35;19.7;70.0
45383;DHT22;42455;51.660;5.824;2022-09-21T12:31:55;19.9;70.5
45383;DHT22;42455;51.660;5.824;2022-09-21T12:36:50;20.1;70.0
45383;DHT22;42455;51.660;5.824;2022-09-21T12:41:57;20.3;68.0
45383;DHT22;42455;51.660;5.824;2022-09-21T12:46:59;20.4;67.5
45383;DHT22;42455;51.660;5.824;2022-09-21T12:52:04;20.4;66.5
45383;DHT22;42455;51.660;5.824;2022-09-21T12:57:11;20.4;65.5
45383;DHT22;42455;51.660;5.824;2022-09-21T13:02:33;20.5;66.0
45383;DHT22;42455;51.660;5.824;2022-09-21T13:08:00;20.5;64.5
45383;DHT22;42455;51.660;5.824;2022-09-21T13:12:38;20.4;64.0
45383;DHT22;42455;51.660;5.824;2022-09-21T13:17:32;20.5;65.5
45383;DHT22;42455;51.660;5.824;2022-09-21T13:22:38;20.6;64.0
45383;DHT22;42455;51.660;5.824;2022-09-21T13:27:58;20.7;64.5
45383;DHT22;42455;51.660;5.824;2022-09-21T13:32:51;20.8;65.0
45383;DHT22;42455;51.660;5.824;2022-09-21T13:38:22;20.9;65.0
45383;DHT22;42455;51.660;5.824;2022-09-21T13:43:21;21.1;64.0
45383;DHT22;42455;51.660;5.824;2022-09-21T13:48:18;21.0;63.0
45383;DHT22;42455;51.660;5.824;2022-09-21T13:53:18;21.0;62.5
45383;DHT22;42455;51.660;5.824;2022-09-21T13:58:26;21.1;63.5
45383;DHT22;42455;51.660;5.824;2022-09-21T14:03:36;21.2;63.5
45383;DHT22;42455;51.660;5.824;2022-09-21T14:08:39;21.2;63.0
45383;DHT22;42455;51.660;5.824;2022-09-21T14:13:41;21.3;63.5
45383;DHT22;42455;51.660;5.824;2022-09-21T14:18:45;21.2;62.5
45383;DHT22;42455;51.660;5.824;2022-09-21T14:24:18;21.0;61.0
45383;DHT22;42455;51.660;5.824;2022-09-21T14:28:57;20.8;62.5
45383;DHT22;42455;51.660;5.824;2022-09-21T14:34:05;20.7;62.5
45383;DHT22;42455;51.660;5.824;2022-09-21T14:39:15;20.5;64.0
45383;DHT22;42455;51.660;5.824;2022-09-21T14:44:19;20.4;64.5
45383;DHT22;42455;51.660;5.824;2022-09-21T14:50:03;20.2;64.0
45383;DHT22;42455;51.660;5.824;2022-09-21T14:54:55;20.1;64.5
45383;DHT22;42455;51.660;5.824;2022-09-21T15:00:20;20.0;65.0
45383;DHT22;42455;51.660;5.824;2022-09-21T15:04:59;20.1;65.0
45383;DHT22;42455;51.660;5.824;2022-09-21T15:10:25;20.2;64.5
45383;DHT22;42455;51.660;5.824;2022-09-21T15:15:22;20.3;64.0
45383;DHT22;42455;51.660;5.824;2022-09-21T15:20:14;20.3;63.0
45383;DHT22;42455;51.660;5.824;2022-09-21T15:25:12;20.3;63.0
45383;DHT22;42455;51.660;5.824;2022-09-21T15:30:19;20.3;63.0
45383;DHT22;42455;51.660;5.824;2022-09-21T15:35:21;20.4;63.5
45383;DHT22;42455;51.660;5.824;2022-09-21T15:40:27;20.5;64.5
45383;DHT22;42455;51.660;5.824;2022-09-21T15:45:33;20.6;64.0
45383;DHT22;42455;51.660;5.824;2022-09-21T15:50:36;20.6;64.0
45383;DHT22;42455;51.660;5.824;2022-09-21T15:55:45;20.6;64.0
45383;DHT22;42455;51.660;5.824;2022-09-21T16:00:51;20.5;64.0
45383;DHT22;42455;51.660;5.824;2022-09-21T16:05:55;20.5;65.0
45383;DHT22;42455;51.660;5.824;2022-09-21T16:11:16;20.4;65.0
45383;DHT22;42455;51.660;5.824;2022-09-21T16:16:07;20.3;65.5
45383;DHT22;42455;51.660;5.824;2022-09-21T16:21:19;20.3;66.0
45383;DHT22;42455;51.660;5.824;2022-09-21T16:26:20;20.2;66.0
45383;DHT22;42455;51.660;5.824;2022-09-21T16:31:33;20.0;66.0
45383;DHT22;42455;51.660;5.824;2022-09-21T16:36:39;19.9;66.5
45383;DHT22;42455;51.660;5.824;2022-09-21T16:41:41;19.8;66.5
45383;DHT22;42455;51.660;5.824;2022-09-21T16:46:43;19.6;67.0
45383;DHT22;42455;51.660;5.824;2022-09-21T16:51:49;19.5;67.5
45383;DHT22;42455;51.660;5.824;2022-09-21T16:56:56;19.3;68.0
45383;DHT22;42455;51.660;5.824;2022-09-21T17:02:01;19.2;68.5
45383;DHT22;42455;51.660;5.824;2022-09-21T17:07:10;19.0;69.0
45383;DHT22;42455;51.660;5.824;2022-09-21T17:12:15;18.9;69.5
45383;DHT22;42455;51.660;5.824;2022-09-21T17:17:23;18.7;70.0
45383;DHT22;42455;51.660;5.824;2022-09-21T17:22:26;18.6;70.0
45383;DHT22;42455;51.660;5.824;2022-09-21T17:27:32;18.4;70.5
45383;DHT22;42455;51.660;5.824;2022-09-21T17:32:39;18.2;71.0
45383;DHT22;42455;51.660;5.824;2022-09-21T17:37:45;17.9;71.5
45383;DHT22;42455;51.660;5.824;2022-09-21T17:42:53;17.7;72.0
45383;DHT22;42455;51.660;5.824;2022-09-21T17:47:57;17.4;72.5
45383;DHT22;42455;51.660;5.824;2022-09-21T17:53:04;17.2;73.0
45383;DHT22;42455;51.660;5.824;2022-09-21T17:58:29;17.0;73.5
45383;DHT22;42455;51.660;5.824;2022-09-21T18:03:22;16.8;74.0
45383;DHT22;42455;51.660;5.824;2022-09-21T18:08:21;16.6;74.5
45383;DHT22;42455;51.660;5.824;2022-09-21T18:14:05;16.4;75.0
45383;DHT22;42455;51.660;5.824;2022-09-21T18:19:29;16.2;75.5
45383;DHT22;42455;51.660;5.824;2022-09-21T18:24:13;16.0;76.0
45383;DHT22;42455;51.660;5.824;2022-09-21T18:28:47;15.8;76.5
45383;DHT22;42455;51.660;5.824;2022-09-21T18:34:42;15.6;76.5
45383;DHT22;42455;51.660;5.824;2022-09-21T18:39:32;15.4;77.0
45383;DHT22;42455;51.660;5.824;2022-09-21T18:44:11;15.3;77.5
45383;DHT22;42455;51.660;5.824;2022-09-21T18:49:34;15.1;78.0
45383;DHT22;42455;51.660;5.824;2022-09-21T18:54:18;15.0;78.5
45383;DHT22;42455;51.660;5.824;2022-09-21T18:59:22;14.9;78.5
45383;DHT22;42455;51.660;5.824;2022-09-21T19:04:29;14.7;79.0
45383;DHT22;42455;51.660;5.824;2022-09-21T19:09:59;14.6;79.5
45383;DHT22;42455;51.660;5.824;2022-09-21T19:14:54;14.5;79.5
45383;DHT22;42455;51.660;5.824;2022-09-21T19:20:27;14.3;79.5
45383;DHT22;42455;51.660;5.824;2022-09-21T19:25:02;14.2;80.0
45383;DHT22;42455;51.660;5.824;2022-09-21T19:30:07;14.1;80.5
45383;DHT22;42455;51.660;5.824;2022-09-21T19:35:21;14.0;80.5
45383;DHT22;42455;51.660;5.824;2022-09-21T19:40:12;13.9;81.0
45383;DHT22;42455;51.660;5.824;2022-09-21T19:45:46;13.8;81.0
45383;DHT22;42455;51.660;5.824;2022-09-21T19:50:28;13.7;81.0
45383;DHT22;42455;51.660;5.824;2022-09-21T19:55:31;13.5;81.5
45383;DHT22;42455;51.660;5.824;2022-09-21T20:00:37;13.4;82.0
45383;DHT22;42455;51.660;5.824;2022-09-21T20:05:54;13.3;82.0
45383;DHT22;42455;51.660;5.824;2022-09-21T20:10:55;13.2;82.5
45383;DHT22;42455;51.660;5.824;2022-09-21T20:15:57;13.1;82.5
45383;DHT22;42455;51.660;5.824;2022-09-21T20:21:00;13.0;83.0
45383;DHT22;42455;51.660;5.824;2022-09-21T20:26:11;12.9;83.0
45383;DHT22;42455;51.660;5.824;2022-09-21T20:31:12;12.8;83.0
45383;DHT22;42455;51.660;5.824;2022-09-21T20:36:18;12.8;83.5
45383;DHT22;42455;51.660;5.824;2022-09-21T20:41:24;12.7;83.5
45383;DHT22;42455;51.660;5.824;2022-09-21T20:46:30;12.6;84.0
45383;DHT22;42455;51.660;5.824;2022-09-21T20:51:37;12.5;84.0
45383;DHT22;42455;51.660;5.824;2022-09-21T20:56:43;12.4;84.5
45383;DHT22;42455;51.660;5.824;2022-09-21T21:01:49;12.3;84.5
45383;DHT22;42455;51.660;5.824;2022-09-21T21:06:55;12.2;84.5
45383;DHT22;42455;51.660;5.824;2022-09-21T21:12:02;12.2;85.0
45383;DHT22;42455;51.660;5.824;2022-09-21T21:17:08;12.1;85.5
45383;DHT22;42455;51.660;5.824;2022-09-21T21:22:14;12.0;85.5
45383;DHT22;42455;51.660;5.824;2022-09-21T21:32:27;11.9;85.5
45383;DHT22;42455;51.660;5.824;2022-09-21T21:37:33;11.8;85.5
45383;DHT22;42455;51.660;5.824;2022-09-21T21:42:39;11.8;85.5
45383;DHT22;42455;51.660;5.824;2022-09-21T21:47:45;11.7;85.5
45383;DHT22;42455;51.660;5.824;2022-09-21T21:52:55;11.6;86.0
45383;DHT22;42455;51.660;5.824;2022-09-21T21:57:57;11.6;86.0
45383;DHT22;42455;51.660;5.824;2022-09-21T22:03:03;11.5;86.5
45383;DHT22;42455;51.660;5.824;2022-09-21T22:08:09;11.4;86.5
45383;DHT22;42455;51.660;5.824;2022-09-21T22:13:14;11.4;86.5
45383;DHT22;42455;51.660;5.824;2022-09-21T22:18:21;11.3;86.5
45383;DHT22;42455;51.660;5.824;2022-09-21T22:23:27;11.2;86.5
45383;DHT22;42455;51.660;5.824;2022-09-21T22:28:34;11.2;87.0
45383;DHT22;42455;51.660;5.824;2022-09-21T22:33:39;11.1;87.0
45383;DHT22;42455;51.660;5.824;2022-09-21T22:38:46;11.1;87.0
45383;DHT22;42455;51.660;5.824;2022-09-21T22:43:53;11.0;87.0
45383;DHT22;42455;51.660;5.824;2022-09-21T22:48:58;10.9;87.5
45383;DHT22;42455;51.660;5.824;2022-09-21T22:54:04;10.9;87.5
45383;DHT22;42455;51.660;5.824;2022-09-21T22:59:10;10.8;87.5
45383;DHT22;42455;51.660;5.824;2022-09-21T23:04:16;10.8;87.5
45383;DHT22;42455;51.660;5.824;2022-09-21T23:09:22;10.7;87.5
45383;DHT22;42455;51.660;5.824;2022-09-21T23:14:29;10.7;87.5
45383;DHT22;42455;51.660;5.824;2022-09-21T23:19:35;10.7;87.5
45383;DHT22;42455;51.660;5.824;2022-09-21T23:24:41;10.6;87.5
45383;DHT22;42455;51.660;5.824;2022-09-21T23:29:47;10.5;88.0
45383;DHT22;42455;51.660;5.824;2022-09-21T23:34:53;10.5;88.0
45383;DHT22;42455;51.660;5.824;2022-09-21T23:40:00;10.4;88.0
45383;DHT22;42455;51.660;5.824;2022-09-21T23:45:06;10.4;88.0
45383;DHT22;42455;51.660;5.824;2022-09-21T23:50:12;10.3;88.0
45383;DHT22;42455;51.660;5.824;2022-09-21T23:55:18;10.2;88.5
